createdAt,value
2023-02-18T00:01:47.193Z,9.13
2023-02-18T00:05:55.473Z,9.08
2023-02-18T00:10:03.679Z,9.01
2023-02-18T00:14:14.682Z,8.96
2023-02-18T00:18:22.658Z,8.93
2023-02-18T00:22:30.844Z,8.88
2023-02-18T00:26:39.419Z,8.81
2023-02-18T00:30:47.846Z,8.72
2023-02-18T00:34:56.476Z,8.65
2023-02-18T00:39:05.876Z,8.58
2023-02-18T00:43:14.580Z,8.50
2023-02-18T00:47:22.420Z,8.41
2023-02-18T00:51:30.258Z,8.33
2023-02-18T00:55:42.305Z,8.25
2023-02-18T00:59:50.803Z,8.20
2023-02-18T01:03:59.492Z,8.15
2023-02-18T01:08:08.063Z,8.14
2023-02-18T01:12:15.574Z,8.13
2023-02-18T01:16:23.256Z,8.14
2023-02-18T01:20:31.544Z,8.13
2023-02-18T01:24:39.687Z,8.10
2023-02-18T01:28:47.243Z,8.07
2023-02-18T01:32:55.064Z,8.04
2023-02-18T01:37:02.973Z,8.03
2023-02-18T01:41:11.466Z,8.03
2023-02-18T01:45:58.805Z,8.06
2023-02-18T01:50:08.244Z,8.05
2023-02-18T01:54:18.794Z,8.03
2023-02-18T01:58:26.815Z,8.02
2023-02-18T02:02:37.171Z,7.98
2023-02-18T02:06:45.118Z,7.93
2023-02-18T02:11:06.742Z,7.87
2023-02-18T02:15:27.979Z,7.82
2023-02-18T02:20:05.850Z,7.74
2023-02-18T02:24:36.787Z,7.65
2023-02-18T02:29:01.390Z,7.57
2023-02-18T02:33:34.708Z,7.49
2023-02-18T02:37:46.327Z,7.40
2023-02-18T02:42:00.354Z,7.31
2023-02-18T02:46:13.070Z,7.23
2023-02-18T02:50:25.332Z,7.17
2023-02-18T02:54:33.265Z,7.09
2023-02-18T02:58:40.659Z,7.02
2023-02-18T03:03:07.248Z,6.97
2023-02-18T03:07:47.508Z,6.95
2023-02-18T03:12:00.368Z,6.95
2023-02-18T03:16:17.864Z,6.91
2023-02-18T03:20:30.810Z,6.85
2023-02-18T03:24:42.940Z,6.80
2023-02-18T03:28:52.458Z,6.78
2023-02-18T03:33:04.735Z,6.75
2023-02-18T03:37:13.353Z,6.70
2023-02-18T03:41:20.872Z,6.66
2023-02-18T03:45:30.153Z,6.65
2023-02-18T03:49:38.574Z,6.63
2023-02-18T03:53:46.655Z,6.60
2023-02-18T03:57:54.235Z,6.59
2023-02-18T04:02:02.824Z,6.58
2023-02-18T04:06:11.085Z,6.55
2023-02-18T04:10:19.673Z,6.51
2023-02-18T04:14:27.210Z,6.47
2023-02-18T04:18:34.534Z,6.45
2023-02-18T04:22:42.809Z,6.48
2023-02-18T04:26:51.169Z,6.49
2023-02-18T04:30:59.095Z,6.51
2023-02-18T04:35:06.971Z,6.53
2023-02-18T04:39:14.618Z,6.55
2023-02-18T04:43:22.216Z,6.57
2023-02-18T04:47:29.897Z,6.59
2023-02-18T04:51:39.059Z,6.59
2023-02-18T04:55:46.659Z,6.60
2023-02-18T04:59:54.402Z,6.61
2023-02-18T05:04:02.396Z,6.63
2023-02-18T05:08:10.287Z,6.67
2023-02-18T05:12:18.452Z,6.67
2023-02-18T05:16:25.991Z,6.68
2023-02-18T05:20:33.145Z,6.69
2023-02-18T05:24:41.373Z,6.70
2023-02-18T05:28:49.778Z,6.71
2023-02-18T05:32:58.745Z,6.71
2023-02-18T05:37:06.817Z,6.72
2023-02-18T05:41:15.063Z,6.73
2023-02-18T05:45:22.950Z,6.73
2023-02-18T05:49:31.937Z,6.77
2023-02-18T05:53:40.053Z,6.81
2023-02-18T05:57:47.465Z,6.83
2023-02-18T06:01:55.916Z,6.83
2023-02-18T06:06:03.865Z,6.84
2023-02-18T06:10:13.693Z,6.85
2023-02-18T06:14:22.106Z,6.84
2023-02-18T06:18:30.117Z,6.86
2023-02-18T06:22:37.929Z,6.87
2023-02-18T06:26:45.589Z,6.87
2023-02-18T06:30:54.551Z,6.88
2023-02-18T06:35:02.241Z,6.89
2023-02-18T06:39:10.174Z,6.90
2023-02-18T06:43:18.639Z,6.91
2023-02-18T06:47:25.961Z,6.92
2023-02-18T06:51:33.903Z,6.92
2023-02-18T06:55:43.169Z,6.92
2023-02-18T06:59:51.037Z,6.94
2023-02-18T07:03:59.507Z,6.95
2023-02-18T07:08:07.927Z,6.98
2023-02-18T07:12:16.283Z,6.99
2023-02-18T07:16:24.928Z,7.02
2023-02-18T07:20:32.643Z,7.06
2023-02-18T07:24:40.355Z,7.08
2023-02-18T07:28:49.567Z,7.10
2023-02-18T07:32:58.012Z,7.12
2023-02-18T07:37:09.484Z,7.16
2023-02-18T07:41:21.441Z,7.19
2023-02-18T07:45:28.934Z,7.23
2023-02-18T07:49:37.886Z,7.27
2023-02-18T07:53:46.779Z,7.30
2023-02-18T07:58:02.544Z,7.34
2023-02-18T08:02:10.792Z,7.37
2023-02-18T08:06:24.940Z,7.41
2023-02-18T08:10:33.210Z,7.45
2023-02-18T08:14:42.011Z,7.50
2023-02-18T08:18:50.257Z,7.54
2023-02-18T08:22:58.523Z,7.58
2023-02-18T08:27:06.463Z,7.63
2023-02-18T08:31:20.578Z,7.67
2023-02-18T08:35:29.173Z,7.70
2023-02-18T08:39:40.077Z,7.73
2023-02-18T08:43:48.323Z,7.74
2023-02-18T08:48:17.202Z,7.74
2023-02-18T08:52:24.940Z,7.74
2023-02-18T08:56:33.852Z,7.74
2023-02-18T09:00:43.836Z,7.74
2023-02-18T09:04:51.334Z,7.74
2023-02-18T09:08:59.445Z,7.73
2023-02-18T09:13:07.163Z,7.73
2023-02-18T09:17:14.676Z,7.73
2023-02-18T09:21:23.132Z,7.73
2023-02-18T09:25:32.483Z,7.74
2023-02-18T09:29:41.884Z,7.74
2023-02-18T09:33:51.543Z,7.72
2023-02-18T09:37:59.705Z,7.68
2023-02-18T09:42:09.190Z,7.66
2023-02-18T09:46:22.030Z,7.65
2023-02-18T09:50:33.701Z,7.65
2023-02-18T09:54:42.063Z,7.62
2023-02-18T09:58:50.465Z,7.62
2023-02-18T10:03:00.630Z,7.58
2023-02-18T10:07:10.444Z,7.52
2023-02-18T10:11:23.769Z,7.48
2023-02-18T10:15:33.838Z,7.44
2023-02-18T10:19:43.401Z,7.38
2023-02-18T10:24:00.107Z,7.34
2023-02-18T10:28:07.869Z,7.35
2023-02-18T10:32:24.605Z,7.35
2023-02-18T10:36:36.222Z,7.36
2023-02-18T10:40:52.824Z,7.38
2023-02-18T10:45:07.725Z,7.43
2023-02-18T10:49:47.449Z,7.45
2023-02-18T10:53:56.759Z,7.48
2023-02-18T10:58:05.021Z,7.49
2023-02-18T11:02:19.292Z,7.50
2023-02-18T11:06:32.031Z,7.52
2023-02-18T11:10:43.470Z,7.56
2023-02-18T11:14:53.173Z,7.60
2023-02-18T11:19:04.390Z,7.67
2023-02-18T11:23:22.551Z,7.70
2023-02-18T11:27:37.167Z,7.71
2023-02-18T11:31:49.710Z,7.74
2023-02-18T11:35:59.438Z,7.81
2023-02-18T11:40:09.288Z,7.85
2023-02-18T11:44:25.255Z,7.86
2023-02-18T11:48:33.047Z,7.91
2023-02-18T11:52:42.356Z,7.93
2023-02-18T11:56:58.827Z,7.98
2023-02-18T12:01:09.109Z,8.00
2023-02-18T12:05:20.678Z,7.98
2023-02-18T12:09:33.109Z,7.96
2023-02-18T12:13:44.122Z,7.93
2023-02-18T12:18:00.745Z,7.90
2023-02-18T12:22:15.420Z,7.88
2023-02-18T12:26:28.880Z,7.83
2023-02-18T12:31:02.121Z,7.81
2023-02-18T12:35:28.021Z,7.78
2023-02-18T12:39:46.985Z,7.76
2023-02-18T12:44:02.755Z,7.80
2023-02-18T12:48:24.346Z,7.81
2023-02-18T12:52:41.580Z,7.77
2023-02-18T12:57:06.284Z,7.77
2023-02-18T13:01:25.184Z,7.71
2023-02-18T13:05:37.617Z,7.66
2023-02-18T13:09:54.737Z,7.66
2023-02-18T13:14:09.566Z,7.69
2023-02-18T13:18:22.107Z,7.74
2023-02-18T13:22:32.024Z,7.80
2023-02-18T13:26:40.756Z,7.82
2023-02-18T13:30:51.645Z,7.87
2023-02-18T13:35:04.872Z,7.88
2023-02-18T13:39:19.784Z,7.84
2023-02-18T13:43:35.282Z,7.81
2023-02-18T13:47:45.732Z,7.78
2023-02-18T13:51:54.495Z,7.81
2023-02-18T13:56:07.038Z,7.85
2023-02-18T14:00:22.258Z,7.92
2023-02-18T14:04:54.203Z,7.94
2023-02-18T14:09:21.811Z,8.01
2023-02-18T14:13:44.803Z,8.06
2023-02-18T14:17:54.746Z,8.12
2023-02-18T14:22:29.724Z,8.14
2023-02-18T14:26:40.863Z,8.18
2023-02-18T14:30:50.279Z,8.22
2023-02-18T14:35:16.727Z,8.28
2023-02-18T14:39:38.701Z,8.34
2023-02-18T14:44:02.917Z,8.39
2023-02-18T14:48:25.023Z,8.45
2023-02-18T14:52:36.221Z,8.55
2023-02-18T14:56:57.465Z,8.72
2023-02-18T15:01:15.470Z,9.12
2023-02-18T15:05:26.288Z,9.50
2023-02-18T15:09:34.370Z,9.75
2023-02-18T15:13:46.071Z,9.90
2023-02-18T15:17:54.731Z,10.04
2023-02-18T15:22:02.637Z,10.12
2023-02-18T15:26:16.492Z,10.16
2023-02-18T15:30:30.103Z,10.22
2023-02-18T15:34:40.478Z,10.29
2023-02-18T15:38:49.321Z,10.34
2023-02-18T15:43:00.758Z,10.38
2023-02-18T15:47:11.303Z,10.42
2023-02-18T15:51:23.383Z,10.44
2023-02-18T15:55:36.083Z,10.46
2023-02-18T15:59:53.480Z,10.48
2023-02-18T16:04:03.820Z,10.48
2023-02-18T16:08:18.513Z,10.49
2023-02-18T16:12:32.609Z,10.49
2023-02-18T16:16:44.129Z,10.47
2023-02-18T16:21:03.989Z,10.46
2023-02-18T16:25:19.854Z,10.47
2023-02-18T16:29:35.795Z,10.50
2023-02-18T16:33:46.969Z,10.55
2023-02-18T16:37:58.258Z,10.58
2023-02-18T16:42:06.872Z,10.62
2023-02-18T16:46:19.742Z,10.65
2023-02-18T16:50:29.219Z,10.65
2023-02-18T16:54:36.918Z,10.62
2023-02-18T16:58:44.896Z,10.60
2023-02-18T17:02:55.386Z,10.61
2023-02-18T17:07:03.895Z,10.59
2023-02-18T17:11:16.641Z,10.59
2023-02-18T17:15:32.968Z,10.58
2023-02-18T17:19:41.260Z,10.56
2023-02-18T17:23:49.733Z,10.56
2023-02-18T17:27:57.638Z,10.55
2023-02-18T17:32:08.768Z,10.53
2023-02-18T17:36:16.738Z,10.49
2023-02-18T17:40:26.698Z,10.47
2023-02-18T17:44:34.566Z,10.43
2023-02-18T17:48:45.900Z,10.39
2023-02-18T17:52:55.865Z,10.35
2023-02-18T17:57:07.414Z,10.29
2023-02-18T18:01:14.984Z,10.25
2023-02-18T18:05:27.742Z,10.26
2023-02-18T18:09:36.321Z,10.29
2023-02-18T18:13:44.078Z,10.29
2023-02-18T18:17:53.104Z,10.27
2023-02-18T18:22:01.221Z,10.24
2023-02-18T18:26:09.352Z,10.23
2023-02-18T18:30:18.332Z,10.22
2023-02-18T18:34:26.709Z,10.20
2023-02-18T18:38:34.143Z,10.19
2023-02-18T18:42:42.151Z,10.20
2023-02-18T18:46:49.953Z,10.21
2023-02-18T18:50:58.058Z,10.23
2023-02-18T18:55:05.885Z,10.22
2023-02-18T18:59:13.533Z,10.20
2023-02-18T19:03:24.574Z,10.17
2023-02-18T19:07:32.978Z,10.19
2023-02-18T19:11:40.787Z,10.20
2023-02-18T19:15:48.368Z,10.18
2023-02-18T19:19:56.697Z,10.10
2023-02-18T19:24:04.841Z,9.98
2023-02-18T19:28:15.136Z,9.90
2023-02-18T19:32:22.764Z,9.82
2023-02-18T19:36:30.885Z,9.75
2023-02-18T19:40:38.637Z,9.68
2023-02-18T19:44:46.047Z,9.65
2023-02-18T19:48:54.202Z,9.63
2023-02-18T19:53:02.098Z,9.63
2023-02-18T19:57:09.341Z,9.64
2023-02-18T20:01:18.671Z,9.63
2023-02-18T20:05:26.393Z,9.55
2023-02-18T20:09:33.689Z,9.49
2023-02-18T20:13:43.614Z,9.44
2023-02-18T20:17:51.839Z,9.41
2023-02-18T20:22:00.861Z,9.39
2023-02-18T20:26:11.765Z,9.33
2023-02-18T20:30:20.871Z,9.12
2023-02-18T20:34:28.520Z,8.86
2023-02-18T20:38:36.591Z,8.66
2023-02-18T20:42:45.487Z,8.51
2023-02-18T20:46:55.477Z,8.37
2023-02-18T20:51:08.505Z,8.23
2023-02-18T20:55:19.016Z,8.14
2023-02-18T20:59:29.592Z,8.08
2023-02-18T21:03:38.435Z,8.08
2023-02-18T21:07:48.565Z,8.08
2023-02-18T21:12:00.439Z,8.09
2023-02-18T21:16:09.374Z,8.05
2023-02-18T21:20:17.296Z,7.99
2023-02-18T21:24:25.107Z,7.96
2023-02-18T21:28:33.442Z,7.95
2023-02-18T21:32:41.615Z,7.92
2023-02-18T21:36:49.931Z,7.91
2023-02-18T21:40:58.330Z,7.90
2023-02-18T21:45:06.900Z,7.86
2023-02-18T21:49:15.893Z,7.84
2023-02-18T21:53:23.913Z,7.83
2023-02-18T21:57:32.482Z,7.80
2023-02-18T22:01:41.687Z,7.78
2023-02-18T22:05:49.815Z,7.73
2023-02-18T22:09:58.031Z,7.64
2023-02-18T22:14:08.870Z,7.54
2023-02-18T22:18:16.579Z,7.44
2023-02-18T22:22:24.161Z,7.39
2023-02-18T22:26:32.883Z,7.40
2023-02-18T22:30:42.634Z,7.41
2023-02-18T22:34:50.365Z,7.38
2023-02-18T22:39:03.218Z,7.33
2023-02-18T22:43:11.645Z,7.28
2023-02-18T22:47:19.388Z,7.23
2023-02-18T22:51:29.388Z,7.20
2023-02-18T22:55:39.143Z,7.17
2023-02-18T22:59:46.882Z,7.17
2023-02-18T23:03:54.942Z,7.16
2023-02-18T23:08:04.305Z,7.14
2023-02-18T23:12:14.224Z,7.10
2023-02-18T23:16:23.519Z,7.10
2023-02-18T23:20:49.505Z,7.09
2023-02-18T23:24:57.483Z,7.12
2023-02-18T23:29:06.813Z,7.14
2023-02-18T23:33:14.382Z,7.13
2023-02-18T23:37:44.147Z,7.11
2023-02-18T23:41:53.207Z,7.01
2023-02-18T23:46:01.572Z,6.96
2023-02-18T23:50:10.315Z,6.96
2023-02-18T23:54:17.582Z,6.97
2023-02-18T23:58:26.690Z,6.98
